Terminal Aerodrome Forecast
Issued by NWS

Current Version | Previous Version | Text Only | Print | Product List | Glossary On
Versions: 1 2 3 4 5 6 7 8 9 10 11 12 13 14 15
302
FTUS43 KAPX 262324
TAFAPN
TAF
KAPN 262324Z 2700/2724 24010KT P6SM -SHRA SCT025 BKN045
     FM270900 22010KT P6SM VCSH SCT025 BKN040
     FM271600 23012G20KT P6SM VCSH SCT025 OVC040
     FM271800 23011G19KT P6SM -SHRA SCT025 OVC040=

USA.gov is the U.S. government's official web portal to all federal, state and local government web resources and services.